createdAt,value
2017-07-23T00:00:20.903Z,78.59
2017-07-23T00:02:49.289Z,80.59
2017-07-23T00:05:17.674Z,80.78
2017-07-23T00:07:46.430Z,80.66
2017-07-23T00:10:14.807Z,79.32
2017-07-23T00:12:43.160Z,78.80
2017-07-23T00:15:11.819Z,78.40
2017-07-23T00:17:40.177Z,78.21
2017-07-23T00:20:08.590Z,77.94
2017-07-23T00:22:37.542Z,77.70
2017-07-23T00:25:05.908Z,77.68
2017-07-23T00:27:35.030Z,77.78
2017-07-23T00:30:03.826Z,77.62
2017-07-23T00:32:32.197Z,77.41
2017-07-23T00:35:00.555Z,77.38
2017-07-23T00:37:29.264Z,77.09
2017-07-23T00:39:57.656Z,76.72
2017-07-23T00:42:26.022Z,77.28
2017-07-23T00:44:55.124Z,77.38
2017-07-23T00:47:23.522Z,77.77
2017-07-23T00:49:51.901Z,77.67
2017-07-23T00:52:20.572Z,77.39
2017-07-23T00:54:48.924Z,77.47
2017-07-23T00:57:18.018Z,77.71
2017-07-23T00:59:47.409Z,78.08
2017-07-23T01:02:15.782Z,78.45
2017-07-23T01:04:44.136Z,78.22
2017-07-23T01:07:13.082Z,78.05
2017-07-23T01:09:41.461Z,77.48
2017-07-23T01:12:09.812Z,77.14
2017-07-23T01:14:38.527Z,77.36
2017-07-23T01:17:06.890Z,77.50
2017-07-23T01:19:36.002Z,77.81
2017-07-23T01:22:04.713Z,78.03
2017-07-23T01:24:33.050Z,77.89
2017-07-23T01:27:01.417Z,77.97
2017-07-23T01:29:30.364Z,77.67
2017-07-23T01:31:58.742Z,78.16
2017-07-23T01:34:27.090Z,79.23
2017-07-23T01:36:55.727Z,79.63
2017-07-23T01:39:24.075Z,79.46
2017-07-23T01:41:52.429Z,79.63
2017-07-23T01:44:21.310Z,79.83
2017-07-23T01:46:49.651Z,79.79
2017-07-23T01:49:17.999Z,80.01
2017-07-23T01:51:46.782Z,79.63
2017-07-23T01:54:15.126Z,80.12
2017-07-23T01:56:43.477Z,79.91
2017-07-23T01:59:12.230Z,80.27
2017-07-23T02:01:40.598Z,80.04
2017-07-23T02:04:09.715Z,80.16
2017-07-23T02:06:38.521Z,79.83
2017-07-23T02:09:06.900Z,79.72
2017-07-23T02:11:35.259Z,79.26
2017-07-23T02:14:04.342Z,79.36
2017-07-23T02:16:32.702Z,78.62
2017-07-23T02:19:01.828Z,78.54
2017-07-23T02:21:30.582Z,77.73
2017-07-23T02:23:58.956Z,77.59
2017-07-23T02:26:28.095Z,77.19
2017-07-23T02:28:56.879Z,77.28
2017-07-23T02:31:25.252Z,77.48
2017-07-23T02:33:53.668Z,77.32
2017-07-23T02:36:22.544Z,77.68
2017-07-23T02:38:50.901Z,77.97
2017-07-23T02:41:19.257Z,78.70
2017-07-23T02:43:48.593Z,78.92
2017-07-23T02:46:16.984Z,78.84
2017-07-23T02:48:45.359Z,79.46
2017-07-23T02:51:14.146Z,79.49
2017-07-23T02:53:42.488Z,79.28
2017-07-23T02:56:10.849Z,78.89
2017-07-23T02:58:39.690Z,78.15
2017-07-23T03:01:08.961Z,77.67
2017-07-23T03:03:37.315Z,77.39
2017-07-23T03:06:05.971Z,77.30
2017-07-23T03:08:34.304Z,78.44
2017-07-23T03:11:03.405Z,78.97
2017-07-23T03:13:33.049Z,79.61
2017-07-23T03:16:01.458Z,79.84
2017-07-23T03:18:29.808Z,79.14
2017-07-23T03:20:58.657Z,78.66
2017-07-23T03:23:27.003Z,79.61
2017-07-23T03:25:55.372Z,80.62
2017-07-23T03:28:24.120Z,80.65
2017-07-23T03:30:52.464Z,80.11
2017-07-23T03:33:20.810Z,79.30
2017-07-23T03:35:49.549Z,79.38
2017-07-23T03:38:17.886Z,79.12
2017-07-23T03:40:46.247Z,78.75
2017-07-23T03:43:15.407Z,78.42
2017-07-23T03:45:43.848Z,78.75
2017-07-23T03:48:12.210Z,79.79
2017-07-23T03:50:41.072Z,81.05
2017-07-23T03:53:09.439Z,81.49
2017-07-23T03:55:38.551Z,82.00
2017-07-23T03:58:07.335Z,81.87
2017-07-23T04:00:35.708Z,81.38
2017-07-23T04:03:04.091Z,80.93
2017-07-23T04:05:33.402Z,81.03
2017-07-23T04:08:01.740Z,81.46
2017-07-23T04:10:30.108Z,81.57
2017-07-23T04:12:58.846Z,82.00
2017-07-23T04:15:27.210Z,82.29
2017-07-23T04:17:56.355Z,82.28
2017-07-23T04:20:24.969Z,83.30
2017-07-23T04:22:53.347Z,83.58
2017-07-23T04:25:21.690Z,84.36
2017-07-23T04:27:50.510Z,85.16
2017-07-23T04:30:18.873Z,84.68
2017-07-23T04:32:47.232Z,84.19
2017-07-23T04:35:16.215Z,83.96
2017-07-23T04:37:44.576Z,84.98
2017-07-23T04:40:12.934Z,84.60
2017-07-23T04:42:41.859Z,83.77
2017-07-23T04:45:10.241Z,83.55
2017-07-23T04:47:38.588Z,82.76
2017-07-23T04:50:07.545Z,82.65
2017-07-23T04:52:35.881Z,82.63
2017-07-23T04:55:04.990Z,82.79
2017-07-23T04:57:33.768Z,82.97
2017-07-23T05:00:02.171Z,83.87
2017-07-23T05:02:30.539Z,83.33
2017-07-23T05:04:59.311Z,82.86
2017-07-23T05:07:27.651Z,83.83
2017-07-23T05:09:56.015Z,83.49
2017-07-23T05:12:24.893Z,83.80
2017-07-23T05:14:53.298Z,83.42
2017-07-23T05:17:21.671Z,82.21
2017-07-23T05:19:50.538Z,82.10
2017-07-23T05:22:18.920Z,81.95
2017-07-23T05:24:47.308Z,82.57
2017-07-23T05:27:16.188Z,83.08
2017-07-23T05:29:44.547Z,82.25
2017-07-23T05:32:13.053Z,82.75
2017-07-23T05:34:41.820Z,81.76
2017-07-23T05:37:10.196Z,81.82
2017-07-23T05:39:38.620Z,81.41
2017-07-23T05:42:07.293Z,81.30
2017-07-23T05:44:35.642Z,80.85
2017-07-23T05:47:04.036Z,80.62
2017-07-23T05:49:32.718Z,80.80
2017-07-23T05:52:01.082Z,80.93
2017-07-23T05:54:29.489Z,80.59
2017-07-23T05:56:58.195Z,79.51
2017-07-23T05:59:26.575Z,79.66
2017-07-23T06:01:54.929Z,79.75
2017-07-23T06:04:23.608Z,79.28
2017-07-23T06:06:51.986Z,78.71
2017-07-23T06:09:20.362Z,77.70
2017-07-23T06:11:49.041Z,78.45
2017-07-23T06:14:17.477Z,79.00
2017-07-23T06:16:45.870Z,79.44
2017-07-23T06:19:14.934Z,79.74
2017-07-23T06:21:43.314Z,79.40
2017-07-23T06:24:11.711Z,79.65
2017-07-23T06:26:40.580Z,80.23
2017-07-23T06:29:08.947Z,79.62
2017-07-23T06:31:37.400Z,80.10
2017-07-23T06:34:06.991Z,79.18
2017-07-23T06:36:35.375Z,78.75
2017-07-23T06:39:04.541Z,78.61
2017-07-23T06:41:33.477Z,77.88
2017-07-23T06:44:01.839Z,77.34
2017-07-23T06:46:30.988Z,77.70
2017-07-23T06:48:59.779Z,78.64
2017-07-23T06:51:28.154Z,77.68
2017-07-23T06:53:56.501Z,77.17
2017-07-23T06:56:25.196Z,77.78
2017-07-23T06:58:53.544Z,77.39
2017-07-23T07:01:21.921Z,77.26
2017-07-23T07:03:51.049Z,77.05
2017-07-23T07:06:19.411Z,76.90
2017-07-23T07:08:48.532Z,77.56
2017-07-23T07:11:17.322Z,77.56
2017-07-23T07:13:45.711Z,76.97
2017-07-23T07:16:14.071Z,76.16
2017-07-23T07:18:42.737Z,75.69
2017-07-23T07:21:11.148Z,74.21
2017-07-23T07:23:39.490Z,73.67
2017-07-23T07:26:08.438Z,75.18
2017-07-23T07:28:36.810Z,76.34
2017-07-23T07:31:05.158Z,74.79
2017-07-23T07:33:34.064Z,73.76
2017-07-23T07:36:02.408Z,71.01
2017-07-23T07:38:30.763Z,68.46
2017-07-23T07:40:59.500Z,71.05
2017-07-23T07:43:27.871Z,72.32
2017-07-23T07:45:57.017Z,69.60
2017-07-23T07:48:25.987Z,70.14
2017-07-23T07:50:54.350Z,70.34
2017-07-23T07:53:22.698Z,69.19
2017-07-23T07:55:51.441Z,69.20
2017-07-23T07:58:19.825Z,67.72
2017-07-23T08:00:48.246Z,67.54
2017-07-23T08:03:16.913Z,68.08
2017-07-23T08:05:45.327Z,67.36
2017-07-23T08:08:13.686Z,68.53
2017-07-23T08:10:42.744Z,70.76
2017-07-23T08:13:11.110Z,69.80
2017-07-23T08:15:39.459Z,69.70
2017-07-23T08:18:08.124Z,71.85
2017-07-23T08:20:36.478Z,70.77
2017-07-23T08:23:04.827Z,73.35
2017-07-23T08:25:33.461Z,72.33
2017-07-23T08:28:01.875Z,71.22
2017-07-23T08:30:30.242Z,71.60
2017-07-23T08:32:59.085Z,72.25
2017-07-23T08:35:27.429Z,71.72
2017-07-23T08:37:55.767Z,72.35
2017-07-23T08:40:24.706Z,72.58
2017-07-23T08:42:53.067Z,73.59
2017-07-23T08:45:22.194Z,72.09
2017-07-23T08:47:50.882Z,71.72
2017-07-23T08:50:19.340Z,72.60
2017-07-23T08:52:47.780Z,71.29
2017-07-23T08:55:16.649Z,69.95
2017-07-23T08:57:45.022Z,67.51
2017-07-23T09:00:13.434Z,66.20
2017-07-23T09:02:42.274Z,64.20
2017-07-23T09:05:10.622Z,64.58
2017-07-23T09:07:39.742Z,63.56
2017-07-23T09:10:09.143Z,63.55
2017-07-23T09:12:37.473Z,63.74
2017-07-23T09:15:05.809Z,62.96
2017-07-23T09:17:34.682Z,64.39
2017-07-23T09:20:03.049Z,63.63
2017-07-23T09:22:31.414Z,63.53
2017-07-23T09:25:00.042Z,59.80
2017-07-23T09:27:28.395Z,59.14
2017-07-23T09:29:57.505Z,57.65
2017-07-23T09:32:27.343Z,56.13
2017-07-23T09:34:55.771Z,54.60
2017-07-23T09:37:24.147Z,52.78
2017-07-23T09:39:52.995Z,54.79
2017-07-23T09:42:21.351Z,57.30
2017-07-23T09:44:49.728Z,58.77
2017-07-23T09:47:18.620Z,58.53
2017-07-23T09:49:46.997Z,59.36
2017-07-23T09:52:15.369Z,60.04
2017-07-23T09:54:44.004Z,61.66
2017-07-23T09:57:12.366Z,61.15
2017-07-23T09:59:40.715Z,59.38
2017-07-23T10:02:10.234Z,59.72
2017-07-23T10:04:38.631Z,58.42
2017-07-23T10:07:06.990Z,58.23
2017-07-23T10:09:35.617Z,57.84
2017-07-23T10:12:03.964Z,59.74
2017-07-23T10:14:32.342Z,59.88
2017-07-23T10:17:01.243Z,61.02
2017-07-23T10:19:29.633Z,61.79
2017-07-23T10:21:58.000Z,60.95
2017-07-23T10:24:27.087Z,60.78
2017-07-23T10:26:55.437Z,59.42
2017-07-23T10:29:24.614Z,60.81
2017-07-23T10:31:53.463Z,59.71
2017-07-23T10:34:21.895Z,61.00
2017-07-23T10:36:50.268Z,59.73
2017-07-23T10:39:19.213Z,60.71
2017-07-23T10:41:47.581Z,61.27
2017-07-23T10:44:15.931Z,63.65
2017-07-23T10:46:45.066Z,64.74
2017-07-23T10:49:13.401Z,62.44
2017-07-23T10:51:42.563Z,63.42
2017-07-23T10:54:11.351Z,63.91
2017-07-23T10:56:39.738Z,62.38
2017-07-23T10:59:08.103Z,63.14
2017-07-23T11:04:04.457Z,62.29
2017-07-23T11:06:32.855Z,61.64
2017-07-23T11:09:01.824Z,61.62
2017-07-23T11:11:30.184Z,60.26
2017-07-23T11:13:58.552Z,59.27
2017-07-23T11:16:27.563Z,57.61
2017-07-23T11:18:55.902Z,55.88
2017-07-23T11:21:24.279Z,55.75
2017-07-23T11:23:52.903Z,55.49
2017-07-23T11:26:21.253Z,55.66
2017-07-23T11:28:49.590Z,55.45
2017-07-23T11:31:18.483Z,56.12
2017-07-23T11:33:46.837Z,56.20
2017-07-23T11:36:15.191Z,56.95
2017-07-23T11:38:44.632Z,56.27
2017-07-23T11:41:13.007Z,56.76
2017-07-23T11:43:41.402Z,56.31
2017-07-23T11:46:10.066Z,55.82
2017-07-23T11:48:38.438Z,56.16
2017-07-23T11:51:06.796Z,57.17
2017-07-23T11:53:35.753Z,56.31
2017-07-23T11:56:04.144Z,55.93
2017-07-23T11:58:32.527Z,55.84
2017-07-23T12:01:01.358Z,55.85
2017-07-23T12:03:29.762Z,55.52
2017-07-23T12:05:58.146Z,52.59
2017-07-23T12:08:27.004Z,54.13
2017-07-23T12:10:55.368Z,54.84
2017-07-23T12:13:24.508Z,52.88
2017-07-23T12:15:53.363Z,50.56
2017-07-23T12:18:22.552Z,49.35
2017-07-23T12:20:50.924Z,48.53
2017-07-23T12:23:19.738Z,47.64
2017-07-23T12:25:48.135Z,46.96
2017-07-23T12:28:16.480Z,44.66
2017-07-23T12:30:45.407Z,41.20
2017-07-23T12:33:13.793Z,41.56
2017-07-23T12:35:42.134Z,41.13
2017-07-23T12:38:10.938Z,40.93
2017-07-23T12:40:39.312Z,40.93
2017-07-23T12:43:07.665Z,42.26
2017-07-23T12:45:36.502Z,43.32
2017-07-23T12:48:04.881Z,43.73
2017-07-23T12:50:33.248Z,43.61
2017-07-23T12:53:01.884Z,41.85
2017-07-23T12:55:30.238Z,39.88
2017-07-23T12:57:58.635Z,40.30
2017-07-23T13:00:27.600Z,38.73
2017-07-23T13:02:55.989Z,39.86
2017-07-23T13:05:24.339Z,40.77
2017-07-23T13:07:53.251Z,41.08
2017-07-23T13:10:21.583Z,42.49
2017-07-23T13:12:50.734Z,41.21
2017-07-23T13:15:19.506Z,41.34
2017-07-23T13:17:47.902Z,40.35
2017-07-23T13:20:16.263Z,41.31
2017-07-23T13:22:45.577Z,42.19
2017-07-23T13:25:13.932Z,42.12
2017-07-23T13:27:42.326Z,41.21
2017-07-23T13:30:10.982Z,40.88
2017-07-23T13:32:39.779Z,40.10
2017-07-23T13:35:08.903Z,40.19
2017-07-23T13:37:37.700Z,41.33
2017-07-23T13:40:06.038Z,38.79
2017-07-23T13:42:35.153Z,40.23
2017-07-23T13:45:04.212Z,38.79
2017-07-23T13:47:32.590Z,41.07
2017-07-23T13:50:00.976Z,39.35
2017-07-23T13:52:29.629Z,40.52
2017-07-23T13:54:57.992Z,40.78
2017-07-23T13:57:26.345Z,40.72
2017-07-23T13:59:55.230Z,40.95
2017-07-23T14:02:23.616Z,40.37
2017-07-23T14:04:52.008Z,39.91
2017-07-23T14:07:20.953Z,37.29
2017-07-23T14:09:49.358Z,35.70
2017-07-23T14:12:17.772Z,36.48
2017-07-23T14:14:46.488Z,37.03
2017-07-23T14:17:14.880Z,37.32
2017-07-23T14:19:43.240Z,37.44
2017-07-23T14:22:11.999Z,37.70
2017-07-23T14:24:40.378Z,37.27
2017-07-23T14:27:08.732Z,36.79
2017-07-23T14:29:37.855Z,36.52
2017-07-23T14:32:06.207Z,36.32
2017-07-23T14:34:35.358Z,37.10
2017-07-23T14:37:04.122Z,37.19
2017-07-23T14:39:32.468Z,37.50
2017-07-23T14:42:01.628Z,36.97
2017-07-23T14:44:30.249Z,36.78
2017-07-23T14:46:59.363Z,37.84
2017-07-23T14:49:27.678Z,37.41
2017-07-23T14:51:56.462Z,36.40
2017-07-23T14:54:24.833Z,35.85
2017-07-23T14:56:53.215Z,36.08
2017-07-23T14:59:21.875Z,36.44
2017-07-23T15:01:50.290Z,35.67
2017-07-23T15:04:18.635Z,36.38
2017-07-23T15:06:47.507Z,36.88
2017-07-23T15:09:15.876Z,36.61
2017-07-23T15:11:45.050Z,36.32
2017-07-23T15:14:14.000Z,36.05
2017-07-23T15:16:42.353Z,35.53
2017-07-23T15:19:11.505Z,35.48
2017-07-23T15:21:40.294Z,35.14
2017-07-23T15:24:08.672Z,35.54
2017-07-23T15:26:37.017Z,36.32
2017-07-23T15:29:05.693Z,36.65
2017-07-23T15:31:34.049Z,36.60
2017-07-23T15:34:02.407Z,35.76
2017-07-23T15:36:31.100Z,35.58
2017-07-23T15:38:59.461Z,36.38
2017-07-23T15:41:27.942Z,34.95
2017-07-23T15:43:56.599Z,35.33
2017-07-23T15:46:24.946Z,36.32
2017-07-23T15:48:53.351Z,35.61
2017-07-23T15:51:22.058Z,35.82
2017-07-23T15:53:50.448Z,34.41
2017-07-23T15:56:18.788Z,34.71
2017-07-23T15:58:47.819Z,36.36
2017-07-23T16:01:16.198Z,37.32
2017-07-23T16:03:44.609Z,37.12
2017-07-23T16:06:13.275Z,36.73
2017-07-23T16:08:41.691Z,37.95
2017-07-23T16:11:10.062Z,37.71
2017-07-23T16:13:38.820Z,37.68
2017-07-23T16:16:07.183Z,38.01
2017-07-23T16:18:35.553Z,38.27
2017-07-23T16:21:04.440Z,38.35
2017-07-23T16:23:32.784Z,39.17
2017-07-23T16:26:01.906Z,39.31
2017-07-23T16:28:30.550Z,38.70
2017-07-23T16:30:58.917Z,38.54
2017-07-23T16:33:27.276Z,38.59
2017-07-23T16:35:55.964Z,39.38
2017-07-23T16:38:24.349Z,37.97
2017-07-23T16:40:52.742Z,38.55
2017-07-23T16:43:21.923Z,38.78
2017-07-23T16:45:50.294Z,38.99
2017-07-23T16:48:18.631Z,38.97
2017-07-23T16:50:47.450Z,39.09
2017-07-23T16:53:15.846Z,38.97
2017-07-23T16:55:44.222Z,40.08
2017-07-23T16:58:12.886Z,39.67
2017-07-23T17:00:41.245Z,38.98
2017-07-23T17:03:10.385Z,39.81
2017-07-23T17:05:39.596Z,38.32
2017-07-23T17:08:07.960Z,38.65
2017-07-23T17:10:36.375Z,38.71
2017-07-23T17:13:05.026Z,39.34
2017-07-23T17:15:33.423Z,39.58
2017-07-23T17:18:01.822Z,39.67
2017-07-23T17:20:30.694Z,38.99
2017-07-23T17:22:59.095Z,39.57
2017-07-23T17:25:27.471Z,37.36
2017-07-23T17:27:56.735Z,38.58
2017-07-23T17:30:25.126Z,37.83
2017-07-23T17:32:53.516Z,37.63
2017-07-23T17:35:22.186Z,37.70
2017-07-23T17:37:50.574Z,38.22
2017-07-23T17:40:18.935Z,39.12
2017-07-23T17:42:47.741Z,39.19
2017-07-23T17:45:16.127Z,39.49
2017-07-23T17:47:44.504Z,39.50
2017-07-23T17:50:13.696Z,39.75
2017-07-23T17:52:42.118Z,40.83
2017-07-23T17:55:10.512Z,40.74
2017-07-23T17:57:39.280Z,40.87
2017-07-23T18:00:07.687Z,41.46
2017-07-23T18:02:36.037Z,41.67
2017-07-23T18:05:04.953Z,41.88
2017-07-23T18:07:33.313Z,41.13
2017-07-23T18:10:01.684Z,41.29
2017-07-23T18:12:30.653Z,41.21
2017-07-23T18:14:59.053Z,41.92
2017-07-23T18:17:27.504Z,41.40
2017-07-23T18:19:56.147Z,40.76
2017-07-23T18:22:24.556Z,41.42
2017-07-23T18:24:52.927Z,41.40
2017-07-23T18:27:21.749Z,40.96
2017-07-23T18:29:50.130Z,40.96
2017-07-23T18:32:18.482Z,41.23
2017-07-23T18:34:47.334Z,41.58
2017-07-23T18:37:15.736Z,42.02
2017-07-23T18:39:44.928Z,42.97
2017-07-23T18:42:13.888Z,43.40
2017-07-23T18:44:42.226Z,43.19
2017-07-23T18:47:10.610Z,44.36
2017-07-23T18:49:39.435Z,45.12
2017-07-23T18:52:07.848Z,45.10
2017-07-23T18:54:37.155Z,45.68
2017-07-23T18:57:06.366Z,46.46
2017-07-23T18:59:34.763Z,46.67
2017-07-23T19:02:03.169Z,46.23
2017-07-23T19:04:31.865Z,46.24
2017-07-23T19:07:00.260Z,46.44
2017-07-23T19:09:28.627Z,47.57
2017-07-23T19:11:57.261Z,48.24
2017-07-23T19:14:25.652Z,48.67
2017-07-23T19:16:54.081Z,48.71
2017-07-23T19:19:23.134Z,49.41
2017-07-23T19:21:51.510Z,49.83
2017-07-23T19:24:19.851Z,49.64
2017-07-23T19:26:48.785Z,49.41
2017-07-23T19:29:17.207Z,49.54
2017-07-23T19:31:45.607Z,49.94
2017-07-23T19:34:14.528Z,50.04
2017-07-23T19:36:42.924Z,50.48
2017-07-23T19:39:11.313Z,51.16
2017-07-23T19:41:40.487Z,51.30
2017-07-23T19:44:08.894Z,51.21
2017-07-23T19:46:37.315Z,52.12
2017-07-23T19:49:06.356Z,52.11
2017-07-23T19:51:34.796Z,51.56
2017-07-23T19:54:03.214Z,51.39
2017-07-23T19:56:31.868Z,51.46
2017-07-23T19:59:00.262Z,52.09
2017-07-23T20:01:28.859Z,51.59
2017-07-23T20:03:57.852Z,52.02
2017-07-23T20:06:26.283Z,51.94
2017-07-23T20:08:54.686Z,52.01
2017-07-23T20:11:23.587Z,51.96
2017-07-23T20:13:52.009Z,52.79
2017-07-23T20:16:20.421Z,52.79
2017-07-23T20:18:49.086Z,52.95
2017-07-23T20:21:17.484Z,52.87
2017-07-23T20:23:46.627Z,53.23
2017-07-23T20:26:15.620Z,53.32
2017-07-23T20:28:43.970Z,52.65
2017-07-23T20:31:12.364Z,52.75
2017-07-23T20:33:41.048Z,52.96
2017-07-23T20:36:09.470Z,53.30
2017-07-23T20:38:37.904Z,52.96
2017-07-23T20:41:06.637Z,52.99
2017-07-23T20:43:35.031Z,55.11
2017-07-23T20:46:03.462Z,55.40
2017-07-23T20:48:32.498Z,56.19
2017-07-23T20:51:00.938Z,56.64
2017-07-23T20:53:29.377Z,56.99
2017-07-23T20:55:58.045Z,57.82
2017-07-23T20:58:26.474Z,57.83
2017-07-23T21:00:54.927Z,57.78
2017-07-23T21:03:23.604Z,57.40
2017-07-23T21:05:52.041Z,57.54
2017-07-23T21:08:20.437Z,57.54
2017-07-23T21:10:49.274Z,58.41
2017-07-23T21:13:17.686Z,58.14
2017-07-23T21:15:46.065Z,58.36
2017-07-23T21:18:14.741Z,58.55
2017-07-23T21:20:43.139Z,58.88
2017-07-23T21:23:11.503Z,58.90
2017-07-23T21:25:40.469Z,59.08
2017-07-23T21:28:08.909Z,59.71
2017-07-23T21:30:37.317Z,60.07
2017-07-23T21:33:06.263Z,60.35
2017-07-23T21:35:34.654Z,60.36
2017-07-23T21:38:03.100Z,60.24
2017-07-23T21:40:31.782Z,60.37
2017-07-23T21:43:00.179Z,60.65
2017-07-23T21:45:28.590Z,60.61
2017-07-23T21:47:57.307Z,60.79
2017-07-23T21:50:25.767Z,61.06
2017-07-23T21:52:54.154Z,61.69
2017-07-23T21:55:22.991Z,61.79
2017-07-23T21:57:51.378Z,62.62
2017-07-23T22:00:19.748Z,61.66
2017-07-23T22:02:48.396Z,62.24
2017-07-23T22:05:16.796Z,63.11
2017-07-23T22:07:45.196Z,63.65
2017-07-23T22:10:13.974Z,64.18
2017-07-23T22:12:42.390Z,64.59
2017-07-23T22:15:10.784Z,64.44
2017-07-23T22:17:39.841Z,63.91
2017-07-23T22:20:08.187Z,63.86
2017-07-23T22:22:36.610Z,64.09
2017-07-23T22:25:05.347Z,63.68
2017-07-23T22:27:33.733Z,63.97
2017-07-23T22:30:02.130Z,64.33
2017-07-23T22:32:30.994Z,64.19
2017-07-23T22:34:59.571Z,64.51
2017-07-23T22:37:27.977Z,64.66
2017-07-23T22:39:57.177Z,65.43
2017-07-23T22:42:26.453Z,65.37
2017-07-23T22:44:54.872Z,65.60
2017-07-23T22:47:23.523Z,65.50
2017-07-23T22:49:51.976Z,64.50
2017-07-23T22:52:20.404Z,64.99
2017-07-23T22:54:49.796Z,64.76
2017-07-23T22:57:18.162Z,64.71
2017-07-23T22:59:46.528Z,65.24
2017-07-23T23:02:15.647Z,65.49
2017-07-23T23:04:44.091Z,65.33
2017-07-23T23:07:12.474Z,65.77
2017-07-23T23:09:41.530Z,65.47
2017-07-23T23:12:09.916Z,65.02
2017-07-23T23:14:38.333Z,64.85
2017-07-23T23:17:07.077Z,64.87
2017-07-23T23:19:35.441Z,64.89
2017-07-23T23:22:03.816Z,64.95
2017-07-23T23:24:32.788Z,63.86
2017-07-23T23:27:01.201Z,64.32
2017-07-23T23:29:30.332Z,65.33
2017-07-23T23:31:59.334Z,65.30
2017-07-23T23:34:27.706Z,66.08
2017-07-23T23:36:56.769Z,66.50
2017-07-23T23:39:25.688Z,67.37
2017-07-23T23:41:54.061Z,67.35
2017-07-23T23:44:22.553Z,66.96
2017-07-23T23:46:51.451Z,67.07
2017-07-23T23:49:19.895Z,67.10
2017-07-23T23:51:48.326Z,68.14
2017-07-23T23:54:17.034Z,68.89
2017-07-23T23:56:45.436Z,68.18
2017-07-23T23:59:13.867Z,67.83
